createdAt,value
2022-12-28T00:00:13.594Z,5.74
2022-12-28T00:01:13.513Z,5.78
2022-12-28T00:02:13.457Z,5.63
2022-12-28T00:03:13.372Z,5.60
2022-12-28T00:04:13.233Z,5.60
2022-12-28T00:05:13.158Z,5.62
2022-12-28T00:06:13.060Z,5.74
2022-12-28T00:07:12.987Z,5.71
2022-12-28T00:08:12.889Z,5.74
2022-12-28T00:09:12.901Z,5.86
2022-12-28T00:10:12.717Z,5.77
2022-12-28T00:11:20.567Z,5.67
2022-12-28T00:12:12.551Z,5.67
2022-12-28T00:13:12.456Z,5.71
2022-12-28T00:14:12.490Z,5.75
2022-12-28T00:15:12.292Z,5.81
2022-12-28T00:16:12.242Z,5.88
2022-12-28T00:17:12.132Z,5.89
2022-12-28T00:18:12.029Z,5.83
2022-12-28T00:19:12.193Z,5.86
2022-12-28T00:20:11.859Z,5.89
2022-12-28T00:21:11.771Z,5.89
2022-12-28T00:22:11.689Z,5.85
2022-12-28T00:23:11.600Z,5.75
2022-12-28T00:24:11.512Z,5.68
2022-12-28T00:25:11.424Z,5.75
2022-12-28T00:26:11.375Z,5.67
2022-12-28T00:27:11.357Z,5.67
2022-12-28T00:28:11.170Z,5.68
2022-12-28T00:29:11.089Z,5.68
2022-12-28T00:30:11.201Z,5.63
2022-12-28T00:31:10.994Z,5.71
2022-12-28T00:32:10.825Z,5.78
2022-12-28T00:33:10.757Z,5.63
2022-12-28T00:34:10.666Z,5.65
2022-12-28T00:35:10.573Z,5.75
2022-12-28T00:36:10.493Z,5.63
2022-12-28T00:37:13.257Z,5.65
2022-12-28T00:38:10.311Z,5.63
2022-12-28T00:39:10.228Z,5.68
2022-12-28T00:40:10.139Z,5.54
2022-12-28T00:41:10.068Z,5.50
2022-12-28T00:42:09.973Z,5.49
2022-12-28T00:43:09.886Z,5.53
2022-12-28T00:44:10.000Z,5.52
2022-12-28T00:45:09.711Z,5.50
2022-12-28T00:46:09.663Z,5.52
2022-12-28T00:47:09.541Z,5.38
2022-12-28T00:48:09.456Z,5.34
2022-12-28T00:49:09.412Z,5.44
2022-12-28T00:50:09.284Z,5.35
2022-12-28T00:51:09.230Z,5.36
2022-12-28T00:52:09.111Z,5.32
2022-12-28T00:53:09.026Z,5.21
2022-12-28T00:54:08.960Z,5.29
2022-12-28T00:55:08.861Z,5.28
2022-12-28T00:56:08.771Z,5.36
2022-12-28T00:57:08.691Z,5.39
2022-12-28T00:58:08.597Z,5.42
2022-12-28T00:59:08.513Z,5.41
2022-12-28T01:00:08.432Z,5.39
2022-12-28T01:01:08.508Z,5.52
2022-12-28T01:02:08.390Z,5.52
2022-12-28T01:03:08.220Z,5.67
2022-12-28T01:04:08.087Z,5.63
2022-12-28T01:05:08.069Z,5.60
2022-12-28T01:06:07.950Z,5.68
2022-12-28T01:07:07.833Z,5.68
2022-12-28T01:08:07.746Z,5.59
2022-12-28T01:09:07.676Z,5.63
2022-12-28T01:10:07.585Z,5.74
2022-12-28T01:11:07.487Z,5.67
2022-12-28T01:12:07.406Z,5.83
2022-12-28T01:13:07.317Z,5.83
2022-12-28T01:14:07.232Z,5.88
2022-12-28T01:15:07.144Z,5.78
2022-12-28T01:16:07.122Z,5.85
2022-12-28T01:17:06.973Z,5.90
2022-12-28T01:18:06.890Z,5.88
2022-12-28T01:19:06.804Z,5.93
2022-12-28T01:20:06.749Z,5.99
2022-12-28T01:21:06.650Z,6.13
2022-12-28T01:22:06.550Z,6.07
2022-12-28T01:23:06.463Z,6.15
2022-12-28T01:24:06.375Z,6.30
2022-12-28T01:25:06.299Z,6.29
2022-12-28T01:26:06.209Z,6.27
2022-12-28T01:27:06.115Z,6.33
2022-12-28T01:28:06.035Z,6.42
2022-12-28T01:29:05.965Z,6.36
2022-12-28T01:30:05.864Z,6.34
2022-12-28T01:31:05.777Z,6.27
2022-12-28T01:32:05.744Z,6.30
2022-12-28T01:33:05.612Z,6.36
2022-12-28T01:34:05.534Z,6.32
2022-12-28T01:35:05.435Z,6.39
2022-12-28T01:36:05.351Z,6.37
2022-12-28T01:37:05.289Z,6.34
2022-12-28T01:38:05.183Z,6.34
2022-12-28T01:39:05.093Z,6.34
2022-12-28T01:40:05.012Z,6.45
2022-12-28T01:41:04.924Z,6.52
2022-12-28T01:42:04.840Z,6.54
2022-12-28T01:43:04.755Z,6.51
2022-12-28T01:44:04.686Z,6.62
2022-12-28T01:45:04.585Z,6.57
2022-12-28T01:46:04.611Z,6.63
2022-12-28T01:47:04.423Z,6.52
2022-12-28T01:48:04.330Z,6.65
2022-12-28T01:49:04.247Z,6.63
2022-12-28T01:50:04.157Z,6.63
2022-12-28T01:51:04.082Z,6.73
2022-12-28T01:52:04.005Z,6.72
2022-12-28T01:53:04.031Z,6.70
2022-12-28T01:54:03.817Z,6.76
2022-12-28T01:55:03.731Z,6.72
2022-12-28T01:56:03.646Z,6.75
2022-12-28T01:57:03.565Z,6.78
2022-12-28T01:58:03.504Z,6.84
2022-12-28T01:59:03.398Z,6.86
2022-12-28T02:00:03.309Z,6.87
2022-12-28T02:01:03.337Z,6.90
2022-12-28T02:02:03.540Z,6.86
2022-12-28T02:03:03.145Z,6.91
2022-12-28T02:04:02.986Z,6.87
2022-12-28T02:05:02.889Z,6.91
2022-12-28T02:06:02.801Z,6.93
2022-12-28T02:07:02.714Z,6.98
2022-12-28T02:08:02.681Z,7.11
2022-12-28T02:09:02.567Z,7.16
2022-12-28T02:10:44.493Z,7.11
2022-12-28T02:11:02.379Z,7.08
2022-12-28T02:12:02.313Z,7.05
2022-12-28T02:13:02.247Z,7.11
2022-12-28T02:14:02.119Z,7.13
2022-12-28T02:15:02.187Z,7.13
2022-12-28T02:16:01.950Z,7.12
2022-12-28T02:17:01.921Z,7.17
2022-12-28T02:18:01.783Z,7.13
2022-12-28T02:19:01.695Z,7.29
2022-12-28T02:20:01.619Z,7.26
2022-12-28T02:21:01.526Z,7.21
2022-12-28T02:22:01.438Z,7.16
2022-12-28T02:23:01.354Z,7.16
2022-12-28T02:24:01.276Z,7.16
2022-12-28T02:25:12.831Z,7.19
2022-12-28T02:26:01.104Z,7.19
2022-12-28T02:27:01.015Z,7.17
2022-12-28T02:28:00.932Z,7.16
2022-12-28T02:29:00.846Z,7.17
2022-12-28T02:30:00.759Z,7.13
2022-12-28T02:31:00.752Z,7.24
2022-12-28T02:32:00.590Z,7.27
2022-12-28T02:33:00.511Z,7.19
2022-12-28T02:34:00.443Z,7.21
2022-12-28T02:35:00.338Z,7.17
2022-12-28T02:36:00.251Z,7.31
2022-12-28T02:37:00.200Z,7.35
2022-12-28T02:38:00.082Z,7.27
2022-12-28T02:38:59.998Z,7.31
2022-12-28T02:39:59.915Z,7.29
2022-12-28T02:40:59.858Z,7.27
2022-12-28T02:41:59.745Z,7.30
2022-12-28T02:42:59.671Z,7.12
2022-12-28T02:43:59.576Z,7.24
2022-12-28T02:44:59.490Z,7.24
2022-12-28T02:45:59.458Z,7.29
2022-12-28T02:46:59.322Z,7.37
2022-12-28T02:47:59.238Z,7.30
2022-12-28T02:48:59.167Z,7.27
2022-12-28T02:49:59.073Z,7.24
2022-12-28T02:50:58.984Z,7.21
2022-12-28T02:51:58.896Z,7.24
2022-12-28T02:52:58.813Z,7.27
2022-12-28T02:53:58.738Z,7.19
2022-12-28T02:54:58.641Z,7.12
2022-12-28T02:55:58.559Z,7.13
2022-12-28T02:56:58.492Z,7.13
2022-12-28T02:57:58.391Z,7.29
2022-12-28T02:58:58.321Z,7.12
2022-12-28T02:59:58.479Z,7.13
2022-12-28T03:00:58.302Z,7.24
2022-12-28T03:01:58.161Z,7.16
2022-12-28T03:02:58.032Z,7.26
2022-12-28T03:03:57.881Z,7.17
2022-12-28T03:04:57.807Z,7.13
2022-12-28T03:05:57.719Z,7.23
2022-12-28T03:06:57.631Z,7.19
2022-12-28T03:07:57.557Z,7.29
2022-12-28T03:08:57.460Z,7.12
2022-12-28T03:09:57.376Z,7.19
2022-12-28T03:10:57.309Z,7.13
2022-12-28T03:11:57.203Z,7.19
2022-12-28T03:12:57.166Z,7.08
2022-12-28T03:13:57.035Z,7.21
2022-12-28T03:14:56.951Z,7.19
2022-12-28T03:15:56.904Z,7.20
2022-12-28T03:16:56.931Z,7.11
2022-12-28T03:17:56.703Z,7.11
2022-12-28T03:18:56.627Z,7.23
2022-12-28T03:19:56.531Z,7.08
2022-12-28T03:20:56.444Z,7.13
2022-12-28T03:21:56.609Z,7.19
2022-12-28T03:22:56.274Z,7.11
2022-12-28T03:23:56.191Z,7.19
2022-12-28T03:24:56.110Z,7.16
2022-12-28T03:25:56.021Z,7.16
2022-12-28T03:26:55.937Z,7.01
2022-12-28T03:27:55.857Z,7.02
2022-12-28T03:28:55.887Z,7.09
2022-12-28T03:29:55.685Z,7.05
2022-12-28T03:30:55.633Z,7.03
2022-12-28T03:31:55.515Z,7.05
2022-12-28T03:32:55.432Z,7.06
2022-12-28T03:33:55.346Z,7.09
2022-12-28T03:34:55.265Z,7.11
2022-12-28T03:35:55.182Z,7.13
2022-12-28T03:36:55.096Z,7.06
2022-12-28T03:37:55.018Z,7.12
2022-12-28T03:38:54.923Z,7.03
2022-12-28T03:39:55.001Z,7.05
2022-12-28T03:40:55.056Z,7.01
2022-12-28T03:41:54.672Z,6.98
2022-12-28T03:42:54.593Z,7.05
2022-12-28T03:43:54.506Z,6.99
2022-12-28T03:44:54.487Z,7.13
2022-12-28T03:45:54.460Z,7.08
2022-12-28T03:46:54.250Z,6.99
2022-12-28T03:47:54.315Z,7.06
2022-12-28T03:48:54.079Z,7.08
2022-12-28T03:49:53.995Z,7.01
2022-12-28T03:50:53.916Z,7.06
2022-12-28T03:51:53.842Z,7.09
2022-12-28T03:52:53.740Z,6.99
2022-12-28T03:53:53.658Z,7.13
2022-12-28T03:54:53.568Z,7.19
2022-12-28T03:55:53.487Z,7.13
2022-12-28T03:56:53.427Z,7.17
2022-12-28T03:57:53.325Z,7.16
2022-12-28T03:58:53.238Z,7.12
2022-12-28T03:59:53.149Z,7.19
2022-12-28T04:00:53.087Z,7.19
2022-12-28T04:01:53.176Z,7.16
2022-12-28T04:02:52.989Z,7.17
2022-12-28T04:03:52.815Z,7.26
2022-12-28T04:04:52.727Z,7.13
2022-12-28T04:05:52.651Z,7.29
2022-12-28T04:06:52.553Z,7.19
2022-12-28T04:07:52.723Z,7.19
2022-12-28T04:08:52.406Z,7.23
2022-12-28T04:09:52.311Z,7.31
2022-12-28T04:10:52.213Z,7.30
2022-12-28T04:11:52.128Z,7.21
2022-12-28T04:12:52.044Z,7.21
2022-12-28T04:13:51.964Z,7.16
2022-12-28T04:14:51.877Z,7.27
2022-12-28T04:15:51.814Z,7.20
2022-12-28T04:16:51.726Z,7.21
2022-12-28T04:17:51.647Z,7.24
2022-12-28T04:18:51.538Z,7.20
2022-12-28T04:19:51.451Z,7.17
2022-12-28T04:20:51.367Z,7.24
2022-12-28T04:21:51.283Z,7.24
2022-12-28T04:22:51.297Z,7.23
2022-12-28T04:23:51.115Z,7.17
2022-12-28T04:24:51.036Z,7.17
2022-12-28T04:25:50.943Z,7.19
2022-12-28T04:26:50.859Z,7.20
2022-12-28T04:27:50.772Z,7.16
2022-12-28T04:28:50.691Z,7.12
2022-12-28T04:29:50.603Z,7.19
2022-12-28T04:30:50.518Z,7.19
2022-12-28T04:31:50.432Z,7.16
2022-12-28T04:32:50.385Z,7.19
2022-12-28T04:33:50.265Z,7.19
2022-12-28T04:34:50.178Z,7.16
2022-12-28T04:35:50.298Z,7.29
2022-12-28T04:36:50.015Z,7.30
2022-12-28T04:37:49.932Z,7.30
2022-12-28T04:38:49.849Z,7.35
2022-12-28T04:39:55.892Z,7.26
2022-12-28T04:40:49.671Z,7.26
2022-12-28T04:41:49.601Z,7.23
2022-12-28T04:42:49.501Z,7.30
2022-12-28T04:43:49.419Z,7.13
2022-12-28T04:44:49.342Z,7.30
2022-12-28T04:45:49.250Z,7.39
2022-12-28T04:46:49.224Z,7.35
2022-12-28T04:47:49.079Z,7.52
2022-12-28T04:48:49.021Z,7.53
2022-12-28T04:49:48.918Z,7.57
2022-12-28T04:50:48.825Z,7.53
2022-12-28T04:51:48.746Z,7.57
2022-12-28T04:52:48.660Z,7.60
2022-12-28T04:53:48.579Z,7.55
2022-12-28T04:54:48.489Z,7.48
2022-12-28T04:55:48.407Z,7.48
2022-12-28T04:56:48.323Z,7.47
2022-12-28T04:57:48.240Z,7.37
2022-12-28T04:58:48.165Z,7.42
2022-12-28T04:59:48.067Z,7.39
2022-12-28T05:00:48.152Z,7.44
2022-12-28T05:01:48.043Z,7.53
2022-12-28T05:02:47.868Z,7.56
2022-12-28T05:03:54.522Z,7.52
2022-12-28T05:04:47.676Z,7.56
2022-12-28T05:05:47.562Z,7.57
2022-12-28T05:06:47.476Z,7.49
2022-12-28T05:07:47.405Z,7.59
2022-12-28T05:08:47.318Z,7.64
2022-12-28T05:09:47.226Z,7.62
2022-12-28T05:10:47.150Z,7.68
2022-12-28T05:11:47.075Z,7.68
2022-12-28T05:12:46.971Z,7.63
2022-12-28T05:13:46.906Z,7.68
2022-12-28T05:14:46.808Z,7.63
2022-12-28T05:15:46.819Z,7.59
2022-12-28T05:16:46.631Z,7.72
2022-12-28T05:17:46.551Z,7.73
2022-12-28T05:18:46.464Z,7.60
2022-12-28T05:19:46.391Z,7.62
2022-12-28T05:20:46.315Z,7.59
2022-12-28T05:21:46.219Z,7.64
2022-12-28T05:22:46.125Z,7.67
2022-12-28T05:23:46.044Z,7.67
2022-12-28T05:24:45.959Z,7.67
2022-12-28T05:25:45.875Z,7.68
2022-12-28T05:26:45.788Z,7.67
2022-12-28T05:27:45.708Z,7.70
2022-12-28T05:28:45.623Z,7.68
2022-12-28T05:29:45.560Z,7.63
2022-12-28T05:30:45.455Z,7.60
2022-12-28T05:31:45.423Z,7.62
2022-12-28T05:32:45.280Z,7.67
2022-12-28T05:33:45.197Z,7.67
2022-12-28T05:34:45.117Z,7.56
2022-12-28T05:35:45.029Z,7.63
2022-12-28T05:36:44.968Z,7.67
2022-12-28T05:37:44.863Z,7.56
2022-12-28T05:38:44.785Z,7.45
2022-12-28T05:39:44.692Z,7.44
2022-12-28T05:40:44.612Z,7.49
2022-12-28T05:41:44.539Z,7.49
2022-12-28T05:42:49.662Z,7.59
2022-12-28T05:43:44.353Z,7.64
2022-12-28T05:44:44.268Z,7.59
2022-12-28T05:45:44.191Z,7.67
2022-12-28T05:46:44.139Z,7.63
2022-12-28T05:47:44.013Z,7.59
2022-12-28T05:48:44.078Z,7.57
2022-12-28T05:49:43.848Z,7.68
2022-12-28T05:50:43.759Z,7.57
2022-12-28T05:51:43.673Z,7.64
2022-12-28T05:52:43.621Z,7.57
2022-12-28T05:53:43.513Z,7.64
2022-12-28T05:54:43.426Z,7.64
2022-12-28T05:55:43.352Z,7.73
2022-12-28T05:56:43.257Z,7.75
2022-12-28T05:57:43.171Z,7.70
2022-12-28T05:58:43.092Z,7.73
2022-12-28T05:59:43.011Z,7.70
2022-12-28T06:00:42.920Z,7.68
2022-12-28T06:01:42.955Z,7.70
2022-12-28T06:02:42.832Z,7.75
2022-12-28T06:03:42.713Z,7.76
2022-12-28T06:04:42.574Z,7.79
2022-12-28T06:05:42.494Z,7.73
2022-12-28T06:06:42.406Z,7.76
2022-12-28T06:07:42.321Z,7.70
2022-12-28T06:08:42.255Z,7.72
2022-12-28T06:09:42.153Z,7.72
2022-12-28T06:10:42.218Z,7.72
2022-12-28T06:11:41.997Z,7.63
2022-12-28T06:12:41.898Z,7.60
2022-12-28T06:13:41.825Z,7.70
2022-12-28T06:14:41.739Z,7.76
2022-12-28T06:15:41.648Z,7.70
2022-12-28T06:16:41.598Z,7.70
2022-12-28T06:17:41.483Z,7.79
2022-12-28T06:18:41.393Z,7.73
2022-12-28T06:19:41.306Z,7.78
2022-12-28T06:20:41.222Z,7.70
2022-12-28T06:21:41.139Z,7.78
2022-12-28T06:22:41.155Z,7.76
2022-12-28T06:23:40.974Z,7.78
2022-12-28T06:24:40.911Z,7.75
2022-12-28T06:25:40.801Z,7.78
2022-12-28T06:26:40.773Z,7.83
2022-12-28T06:27:40.633Z,7.86
2022-12-28T06:28:40.558Z,7.86
2022-12-28T06:29:40.466Z,7.78
2022-12-28T06:30:40.375Z,7.73
2022-12-28T06:31:40.341Z,7.70
2022-12-28T06:32:40.210Z,7.78
2022-12-28T06:33:40.128Z,7.79
2022-12-28T06:34:40.191Z,7.78
2022-12-28T06:35:39.960Z,7.78
2022-12-28T06:36:39.873Z,7.75
2022-12-28T06:37:39.809Z,7.78
2022-12-28T06:38:39.703Z,7.83
2022-12-28T06:39:39.629Z,7.82
2022-12-28T06:41:11.796Z,7.78
2022-12-28T06:41:39.463Z,7.70
2022-12-28T06:42:39.369Z,7.83
2022-12-28T06:43:39.285Z,7.70
2022-12-28T06:44:44.373Z,7.79
2022-12-28T06:45:39.143Z,7.72
2022-12-28T06:46:39.028Z,7.73
2022-12-28T06:47:38.944Z,7.81
2022-12-28T06:48:38.877Z,7.81
2022-12-28T06:49:38.829Z,7.73
2022-12-28T06:50:40.335Z,7.86
2022-12-28T06:51:38.698Z,7.85
2022-12-28T06:52:38.536Z,7.88
2022-12-28T06:53:38.450Z,7.86
2022-12-28T06:54:38.354Z,7.85
2022-12-28T06:55:38.271Z,7.88
2022-12-28T06:56:38.211Z,7.88
2022-12-28T06:57:38.103Z,7.93
2022-12-28T06:58:38.016Z,7.90
2022-12-28T06:59:37.936Z,7.93
2022-12-28T07:00:37.857Z,7.96
2022-12-28T07:01:38.086Z,7.99
2022-12-28T07:02:37.822Z,7.96
2022-12-28T07:03:37.597Z,7.93
2022-12-28T07:04:37.526Z,7.96
2022-12-28T07:05:37.429Z,8.00
2022-12-28T07:06:37.345Z,7.85
2022-12-28T07:07:37.268Z,7.97
2022-12-28T07:08:37.179Z,7.99
2022-12-28T07:09:37.095Z,7.88
2022-12-28T07:10:37.011Z,7.93
2022-12-28T07:11:36.930Z,7.83
2022-12-28T07:12:36.873Z,7.94
2022-12-28T07:13:36.755Z,8.09
2022-12-28T07:14:36.698Z,8.04
2022-12-28T07:15:36.585Z,8.06
2022-12-28T07:17:15.950Z,7.99
2022-12-28T07:18:15.866Z,8.00
2022-12-28T07:19:16.031Z,8.01
2022-12-28T07:20:15.701Z,8.15
2022-12-28T07:21:15.771Z,8.21
2022-12-28T07:22:15.533Z,8.19
2022-12-28T07:23:15.459Z,8.19
2022-12-28T07:24:15.359Z,8.21
2022-12-28T07:25:15.280Z,8.22
2022-12-28T07:26:15.194Z,8.24
2022-12-28T07:27:15.115Z,8.21
2022-12-28T07:28:15.053Z,8.22
2022-12-28T07:29:14.937Z,8.19
2022-12-28T07:30:14.857Z,8.06
2022-12-28T07:31:14.839Z,8.22
2022-12-28T07:32:14.697Z,8.07
2022-12-28T07:33:14.600Z,8.14
2022-12-28T07:34:14.526Z,8.17
2022-12-28T07:35:14.446Z,8.21
2022-12-28T07:36:14.352Z,8.17
2022-12-28T07:37:14.270Z,8.25
2022-12-28T07:38:20.972Z,8.18
2022-12-28T07:39:14.117Z,8.22
2022-12-28T07:40:14.023Z,8.18
2022-12-28T07:41:13.932Z,8.17
2022-12-28T07:42:13.848Z,8.15
2022-12-28T07:43:13.762Z,8.14
2022-12-28T07:44:13.699Z,8.09
2022-12-28T07:45:13.598Z,8.04
2022-12-28T07:46:13.574Z,8.04
2022-12-28T07:47:13.510Z,8.09
2022-12-28T07:48:13.345Z,8.12
2022-12-28T07:49:13.276Z,8.14
2022-12-28T07:50:13.176Z,8.18
2022-12-28T07:51:13.094Z,8.17
2022-12-28T07:52:13.005Z,8.22
2022-12-28T07:53:16.059Z,8.22
2022-12-28T07:54:12.842Z,8.21
2022-12-28T07:55:12.759Z,8.18
2022-12-28T07:56:12.674Z,8.22
2022-12-28T07:57:12.591Z,8.24
2022-12-28T07:58:12.507Z,8.24
2022-12-28T07:59:12.421Z,8.21
2022-12-28T08:00:12.361Z,8.15
2022-12-28T08:01:12.546Z,8.21
2022-12-28T08:02:12.291Z,8.22
2022-12-28T08:03:12.154Z,8.19
2022-12-28T08:04:12.006Z,8.22
2022-12-28T08:05:11.920Z,8.21
2022-12-28T08:06:11.843Z,8.15
2022-12-28T08:07:11.757Z,8.19
2022-12-28T08:08:11.672Z,8.15
2022-12-28T08:09:11.691Z,8.14
2022-12-28T08:10:11.509Z,8.25
2022-12-28T08:11:11.424Z,8.21
2022-12-28T08:12:11.336Z,8.15
2022-12-28T08:13:11.251Z,8.27
2022-12-28T08:14:11.170Z,8.32
2022-12-28T08:15:11.086Z,8.30
2022-12-28T08:16:11.096Z,8.24
2022-12-28T08:17:12.824Z,8.30
2022-12-28T08:18:10.835Z,8.36
2022-12-28T08:19:10.898Z,8.33
2022-12-28T08:20:10.667Z,8.30
2022-12-28T08:21:10.591Z,8.29
2022-12-28T08:22:10.503Z,8.22
2022-12-28T08:23:10.412Z,8.27
2022-12-28T08:24:10.333Z,8.34
2022-12-28T08:25:10.248Z,8.25
2022-12-28T08:26:10.212Z,8.33
2022-12-28T08:27:10.078Z,8.36
2022-12-28T08:28:09.998Z,8.34
2022-12-28T08:29:09.916Z,8.39
2022-12-28T08:30:09.825Z,8.36
2022-12-28T08:31:09.852Z,8.42
2022-12-28T08:32:09.694Z,8.39
2022-12-28T08:33:09.579Z,8.43
2022-12-28T08:34:09.512Z,8.44
2022-12-28T08:35:09.424Z,8.37
2022-12-28T08:36:09.357Z,8.43
2022-12-28T08:37:09.304Z,8.51
2022-12-28T08:38:09.165Z,8.48
2022-12-28T08:39:09.076Z,8.48
2022-12-28T08:40:08.996Z,8.52
2022-12-28T08:41:08.923Z,8.47
2022-12-28T08:42:08.828Z,8.58
2022-12-28T08:43:08.743Z,8.57
2022-12-28T08:44:08.660Z,8.60
2022-12-28T08:45:08.576Z,8.68
2022-12-28T08:46:08.620Z,8.66
2022-12-28T08:47:08.465Z,8.68
2022-12-28T08:48:08.352Z,8.73
2022-12-28T08:49:08.242Z,8.72
2022-12-28T08:50:11.770Z,8.72
2022-12-28T08:51:08.074Z,8.69
2022-12-28T08:52:08.024Z,8.76
2022-12-28T08:53:07.912Z,8.80
2022-12-28T08:54:07.826Z,8.87
2022-12-28T08:55:07.748Z,8.79
2022-12-28T08:56:07.657Z,8.85
2022-12-28T08:57:07.571Z,8.77
2022-12-28T08:58:07.498Z,8.80
2022-12-28T08:59:07.425Z,8.79
2022-12-28T09:00:07.325Z,8.80
2022-12-28T09:01:07.420Z,8.87
2022-12-28T09:02:07.238Z,8.90
2022-12-28T09:03:07.289Z,8.84
2022-12-28T09:04:07.010Z,9.09
2022-12-28T09:05:06.906Z,9.05
2022-12-28T09:06:06.826Z,9.05
2022-12-28T09:07:06.747Z,9.14
2022-12-28T09:08:06.663Z,9.22
2022-12-28T09:09:07.154Z,9.34
2022-12-28T09:10:06.537Z,9.37
2022-12-28T09:11:06.421Z,9.40
2022-12-28T09:12:06.325Z,9.35
2022-12-28T09:13:06.245Z,9.40
2022-12-28T09:14:06.162Z,9.37
2022-12-28T09:15:06.072Z,9.37
2022-12-28T09:16:06.018Z,9.31
2022-12-28T09:17:05.957Z,9.20
2022-12-28T09:18:06.025Z,9.28
2022-12-28T09:19:05.751Z,9.24
2022-12-28T09:20:05.831Z,9.19
2022-12-28T09:21:05.577Z,9.27
2022-12-28T09:22:05.494Z,9.29
2022-12-28T09:23:05.414Z,9.22
2022-12-28T09:24:05.330Z,9.17
2022-12-28T09:25:05.268Z,9.22
2022-12-28T09:26:05.163Z,9.25
2022-12-28T09:27:05.083Z,9.20
2022-12-28T09:28:05.006Z,9.22
2022-12-28T09:29:04.913Z,9.22
2022-12-28T09:30:04.832Z,9.22
2022-12-28T09:31:04.888Z,9.19
2022-12-28T09:32:04.666Z,9.29
2022-12-28T09:33:04.587Z,9.24
2022-12-28T09:35:04.433Z,9.24
2022-12-28T09:36:04.360Z,9.34
2022-12-28T09:37:04.258Z,9.25
2022-12-28T09:38:04.178Z,9.28
2022-12-28T09:39:04.177Z,9.32
2022-12-28T09:40:04.002Z,9.34
2022-12-28T09:41:03.920Z,9.25
2022-12-28T09:42:03.852Z,9.27
2022-12-28T09:43:03.766Z,9.29
2022-12-28T09:44:03.670Z,9.25
2022-12-28T09:45:03.591Z,9.29
2022-12-28T09:46:03.552Z,9.31
2022-12-28T09:47:03.657Z,9.28
2022-12-28T09:48:03.380Z,9.22
2022-12-28T09:49:03.257Z,9.35
2022-12-28T09:50:03.183Z,9.42
2022-12-28T09:51:03.101Z,9.47
2022-12-28T09:52:03.036Z,9.68
2022-12-28T09:53:02.927Z,9.80
2022-12-28T09:54:02.850Z,10.01
2022-12-28T09:55:02.770Z,10.23
2022-12-28T09:56:02.683Z,10.25
2022-12-28T09:57:02.599Z,10.31
2022-12-28T09:58:02.521Z,10.36
2022-12-28T09:59:02.586Z,10.60
2022-12-28T10:00:02.375Z,10.62
2022-12-28T10:01:02.333Z,10.58
2022-12-28T10:02:02.349Z,10.55
2022-12-28T10:03:02.228Z,10.44
2022-12-28T10:04:02.025Z,10.46
2022-12-28T10:05:01.943Z,10.66
2022-12-28T10:06:01.876Z,10.74
2022-12-28T10:07:01.797Z,10.73
2022-12-28T10:08:01.721Z,10.67
2022-12-28T10:09:01.627Z,10.67
2022-12-28T10:10:01.541Z,10.58
2022-12-28T10:11:01.458Z,10.47
2022-12-28T10:12:01.384Z,10.33
2022-12-28T10:13:01.392Z,10.29
2022-12-28T10:14:01.219Z,10.31
2022-12-28T10:15:01.130Z,10.23
2022-12-28T10:16:01.110Z,10.16
2022-12-28T10:17:00.967Z,10.23
2022-12-28T10:18:00.888Z,10.31
2022-12-28T10:19:00.824Z,10.28
2022-12-28T10:20:00.725Z,10.41
2022-12-28T10:21:00.642Z,10.66
2022-12-28T10:22:00.590Z,10.91
2022-12-28T10:23:00.483Z,11.06
2022-12-28T10:24:31.063Z,11.21
2022-12-28T10:25:00.328Z,11.36
2022-12-28T10:26:00.444Z,11.72
2022-12-28T10:27:00.160Z,11.83
2022-12-28T10:28:00.079Z,11.98
2022-12-28T10:28:59.993Z,12.11
2022-12-28T10:29:59.920Z,12.33
2022-12-28T10:30:59.885Z,12.34
2022-12-28T10:31:59.756Z,12.12
2022-12-28T10:33:03.044Z,12.36
2022-12-28T10:33:59.604Z,12.64
2022-12-28T10:34:59.528Z,12.12
2022-12-28T10:35:59.442Z,12.46
2022-12-28T10:36:59.362Z,12.24
2022-12-28T10:37:59.286Z,11.93
2022-12-28T10:38:59.208Z,11.71
2022-12-28T10:39:59.155Z,11.68
2022-12-28T10:40:59.045Z,11.39
2022-12-28T10:41:58.969Z,11.20
2022-12-28T10:42:58.887Z,11.29
2022-12-28T10:44:37.550Z,11.35
2022-12-28T10:44:58.729Z,11.67
2022-12-28T10:45:58.650Z,11.59
2022-12-28T10:46:58.624Z,11.54
2022-12-28T10:47:58.498Z,11.81
2022-12-28T10:48:58.412Z,12.09
2022-12-28T10:50:58.257Z,12.42
2022-12-28T10:51:58.177Z,12.37
2022-12-28T10:52:58.113Z,12.61
2022-12-28T10:53:58.025Z,12.97
2022-12-28T10:55:08.464Z,12.85
2022-12-28T10:55:57.883Z,12.91
2022-12-28T10:56:57.782Z,12.84
2022-12-28T10:58:28.582Z,12.63
2022-12-28T10:58:57.629Z,12.49
2022-12-28T10:59:57.549Z,12.23
2022-12-28T11:00:57.674Z,12.19
2022-12-28T11:01:57.720Z,12.13
2022-12-28T11:02:57.454Z,12.02
2022-12-28T11:03:57.246Z,11.81
2022-12-28T11:04:57.160Z,11.74
2022-12-28T11:05:57.662Z,11.57
2022-12-28T11:06:57.164Z,11.51
2022-12-28T11:07:56.925Z,11.54
2022-12-28T11:08:56.846Z,11.56
2022-12-28T11:09:56.768Z,11.50
2022-12-28T11:10:56.692Z,11.36
2022-12-28T11:11:56.635Z,11.49
2022-12-28T11:12:56.532Z,11.61
2022-12-28T11:13:56.453Z,11.51
2022-12-28T11:14:56.384Z,11.50
2022-12-28T11:15:56.350Z,11.50
2022-12-28T11:16:56.218Z,11.56
2022-12-28T11:17:56.137Z,11.38
2022-12-28T11:18:56.056Z,11.36
2022-12-28T11:19:56.018Z,11.53
2022-12-28T11:20:55.899Z,11.56
2022-12-28T11:21:55.819Z,11.50
2022-12-28T11:22:55.737Z,11.43
2022-12-28T11:23:55.670Z,11.42
2022-12-28T11:24:55.731Z,11.43
2022-12-28T11:25:55.504Z,11.32
2022-12-28T11:26:55.421Z,11.32
2022-12-28T11:27:55.364Z,11.06
2022-12-28T11:28:55.372Z,11.02
2022-12-28T11:29:55.188Z,10.93
2022-12-28T11:30:55.109Z,10.99
2022-12-28T11:31:55.081Z,10.93
2022-12-28T11:32:54.944Z,10.99
2022-12-28T11:33:54.861Z,10.99
2022-12-28T11:34:54.783Z,11.06
2022-12-28T11:35:59.101Z,11.06
2022-12-28T11:36:54.627Z,11.02
2022-12-28T11:37:54.542Z,10.95
2022-12-28T11:38:54.468Z,10.99
2022-12-28T11:39:54.391Z,10.96
2022-12-28T11:40:54.314Z,10.96
2022-12-28T11:42:27.691Z,10.95
2022-12-28T11:42:54.148Z,11.02
2022-12-28T11:43:54.102Z,11.13
2022-12-28T11:44:54.083Z,11.14
2022-12-28T11:45:54.025Z,11.06
2022-12-28T11:46:53.827Z,11.00
2022-12-28T11:47:53.739Z,11.00
2022-12-28T11:48:53.659Z,10.99
2022-12-28T11:49:53.582Z,10.96
2022-12-28T11:50:53.505Z,10.99
2022-12-28T11:51:53.420Z,11.03
2022-12-28T11:52:53.339Z,11.13
2022-12-28T11:53:53.260Z,11.18
2022-12-28T11:54:53.178Z,11.21
2022-12-28T11:55:53.105Z,11.14
2022-12-28T11:56:53.022Z,11.11
2022-12-28T11:57:52.939Z,11.16
2022-12-28T11:58:52.860Z,11.03
2022-12-28T11:59:52.813Z,10.98
2022-12-28T12:00:52.710Z,10.93
2022-12-28T12:01:52.726Z,10.98
2022-12-28T12:02:52.540Z,10.92
2022-12-28T12:03:52.460Z,10.84
2022-12-28T12:04:52.379Z,10.93
2022-12-28T12:05:52.307Z,10.96
2022-12-28T12:06:52.217Z,11.02
2022-12-28T12:07:52.137Z,11.02
2022-12-28T12:08:52.054Z,10.96
2022-12-28T12:09:51.974Z,10.96
2022-12-28T12:10:51.901Z,10.91
2022-12-28T12:11:51.824Z,10.87
2022-12-28T12:12:51.735Z,10.96
2022-12-28T12:13:51.666Z,11.03
2022-12-28T12:14:51.576Z,10.99
2022-12-28T12:15:51.517Z,11.10
2022-12-28T12:16:51.472Z,11.24
2022-12-28T12:17:51.333Z,11.06
2022-12-28T12:18:51.253Z,11.03
2022-12-28T12:19:51.172Z,11.06
2022-12-28T12:20:51.092Z,11.14
2022-12-28T12:21:51.011Z,11.28
2022-12-28T12:22:50.934Z,11.28
2022-12-28T12:23:50.851Z,11.21
2022-12-28T12:24:50.772Z,11.18
2022-12-28T12:25:50.701Z,11.26
2022-12-28T12:26:50.639Z,11.16
2022-12-28T12:27:50.540Z,11.18
2022-12-28T12:28:50.451Z,11.23
2022-12-28T12:29:50.377Z,11.21
2022-12-28T12:30:50.325Z,11.24
2022-12-28T12:31:50.230Z,11.14
2022-12-28T12:32:50.172Z,11.18
2022-12-28T12:33:50.252Z,11.13
2022-12-28T12:34:49.972Z,11.00
2022-12-28T12:35:49.896Z,10.99
2022-12-28T12:36:49.813Z,10.96
2022-12-28T12:37:49.744Z,11.03
2022-12-28T12:38:49.651Z,10.96
2022-12-28T12:39:49.569Z,10.99
2022-12-28T12:40:49.501Z,10.88
2022-12-28T12:41:49.407Z,11.03
2022-12-28T12:42:49.331Z,11.03
2022-12-28T12:43:49.248Z,10.93
2022-12-28T12:44:49.169Z,10.98
2022-12-28T12:45:49.173Z,11.02
2022-12-28T12:46:49.019Z,10.91
2022-12-28T12:47:49.085Z,10.98
2022-12-28T12:48:48.848Z,11.00
2022-12-28T12:49:48.772Z,11.13
2022-12-28T12:50:48.690Z,11.08
2022-12-28T12:51:48.604Z,11.03
2022-12-28T12:52:48.535Z,11.16
2022-12-28T12:53:49.125Z,11.17
2022-12-28T12:54:48.384Z,11.24
2022-12-28T12:55:48.283Z,11.38
2022-12-28T12:56:48.212Z,11.42
2022-12-28T12:57:48.122Z,11.51
2022-12-28T12:58:48.093Z,11.43
2022-12-28T12:59:48.011Z,11.41
2022-12-28T13:00:48.916Z,11.39
2022-12-28T13:01:47.975Z,11.43
2022-12-28T13:02:47.856Z,11.29
2022-12-28T13:03:47.663Z,11.14
2022-12-28T13:04:47.565Z,11.17
2022-12-28T13:05:47.490Z,10.99
2022-12-28T13:06:47.406Z,10.96
2022-12-28T13:07:47.321Z,10.93
2022-12-28T13:08:47.396Z,10.93
2022-12-28T13:09:47.162Z,10.99
2022-12-28T13:10:47.080Z,10.93
2022-12-28T13:11:47.003Z,10.93
2022-12-28T13:12:46.921Z,10.83